Time;durP1;ratioP1;P1;durP2;ratioP2;P2;SDS_P1;SDS_P2;PMS_P1;PMS_P2;Temp;Humidity;BMP_temperature;BMP_pressure;BME280_temperature;BME280_humidity;BME280_pressure;Samples;Min_cycle;Max_cycle;Signal;HPM_P1;HPM_P2
2022/10/27 00:00:39;;;;;;;4.00;2.58;;;;;;;27.00;22.09;98991.41;4995155;28;20057;-79
2022/10/27 00:03:06;;;;;;;4.63;3.28;;;;;;;26.87;22.52;98986.84;5011647;28;20029;-79
2022/10/27 00:05:33;;;;;;;3.35;3.05;;;;;;;26.78;22.30;98998.69;5010810;28;20451;-79
2022/10/27 00:07:59;;;;;;;4.60;3.70;;;;;;;26.63;22.85;98988.88;5008990;28;20049;-79
2022/10/27 00:10:25;;;;;;;2.92;2.50;;;;;;;26.70;22.91;98995.19;5011412;28;20436;-79
2022/10/27 00:12:51;;;;;;;6.07;2.25;;;;;;;26.90;22.35;98998.06;5005662;28;20038;-79
2022/10/27 00:15:18;;;;;;;4.25;3.08;;;;;;;27.15;22.13;98991.94;5006697;28;20037;-79
2022/10/27 00:17:44;;;;;;;4.22;2.72;;;;;;;27.30;22.18;98993.25;5012402;28;20038;-79
2022/10/27 00:20:11;;;;;;;3.97;2.90;;;;;;;27.36;22.05;98985.88;5005088;28;20034;-79
2022/10/27 00:22:37;;;;;;;4.70;2.60;;;;;;;27.29;22.15;99000.91;5007072;28;20050;-79
2022/10/27 00:25:04;;;;;;;2.95;2.30;;;;;;;27.49;21.78;98994.50;5011557;28;20030;-79
2022/10/27 00:27:30;;;;;;;4.35;2.80;;;;;;;27.57;21.40;98998.75;5013832;28;20551;-79
2022/10/27 00:29:56;;;;;;;3.08;2.53;;;;;;;27.18;21.97;99000.34;5011262;28;20383;-79
2022/10/27 00:32:23;;;;;;;4.15;2.20;;;;;;;26.46;22.81;99004.88;5013539;28;20609;-79
2022/10/27 00:34:49;;;;;;;3.42;2.15;;;;;;;26.29;22.95;99005.16;5009959;28;20029;-79
2022/10/27 00:37:15;;;;;;;3.70;2.50;;;;;;;26.13;23.10;99002.19;5007677;28;20041;-79
2022/10/27 00:39:41;;;;;;;3.30;2.28;;;;;;;26.35;23.60;99003.47;5001505;28;20062;-79
2022/10/27 00:42:13;;;;;;;3.13;2.38;;;;;;;26.81;22.72;99006.31;5006032;28;20387;-79
2022/10/27 00:44:46;;;;;;;3.25;2.30;;;;;;;27.16;22.34;99008.44;5007291;28;20055;-79
2022/10/27 00:47:31;;;;;;;4.13;2.30;;;;;;;27.17;22.11;99009.22;5010927;28;20040;-80
2022/10/27 00:50:20;;;;;;;4.15;2.60;;;;;;;27.19;22.32;99010.38;5007225;28;20061;-79
2022/10/27 00:52:58;;;;;;;4.30;2.20;;;;;;;27.38;21.91;99001.16;5008016;28;20514;-80
2022/10/27 00:55:33;;;;;;;3.85;2.15;;;;;;;27.53;21.51;98996.03;5022061;28;20057;-80
2022/10/27 00:58:02;;;;;;;3.45;2.20;;;;;;;27.22;21.99;98992.59;5012507;28;20030;-79
2022/10/27 01:00:28;;;;;;;3.40;2.00;;;;;;;27.23;22.27;98993.41;5002778;28;20399;-80
2022/10/27 01:02:55;;;;;;;3.88;1.92;;;;;;;27.38;22.32;99001.16;5010963;28;20045;-79
2022/10/27 01:05:25;;;;;;;3.85;2.28;;;;;;;27.07;23.08;99011.00;5011768;28;20036;-79
2022/10/27 01:07:57;;;;;;;4.18;2.00;;;;;;;27.13;22.65;99011.31;5011864;28;20073;-79
2022/10/27 01:10:24;;;;;;;3.72;2.50;;;;;;;27.05;23.21;99007.06;5011064;28;20030;-79
2022/10/27 01:12:53;;;;;;;3.22;1.83;;;;;;;27.09;22.89;99011.41;5010405;28;20033;-79
2022/10/27 01:15:38;;;;;;;2.55;1.95;;;;;;;26.96;23.16;99010.44;5002939;28;20115;-79
2022/10/27 01:18:26;;;;;;;3.20;2.10;;;;;;;27.11;22.95;99008.16;5011769;28;20029;-79
2022/10/27 01:21:07;;;;;;;4.68;2.10;;;;;;;27.39;22.67;99002.75;5005585;28;20030;-79
2022/10/27 01:23:52;;;;;;;;;;;;;;;27.42;22.63;98998.28;5012530;28;20084;-79
2022/10/27 01:26:40;;;;;;;4.00;2.38;;;;;;;27.48;22.36;98995.72;5013141;28;20351;-79
2022/10/27 01:29:15;;;;;;;2.78;1.92;;;;;;;27.32;22.57;98997.25;5012958;28;20056;-79
2022/10/27 01:32:04;;;;;;;3.45;2.30;;;;;;;27.50;22.00;98996.88;5004020;28;20038;-79
2022/10/27 01:34:46;;;;;;;1.92;1.75;;;;;;;27.52;21.82;98997.25;5012652;28;20040;-79
2022/10/27 01:37:20;;;;;;;2.95;2.00;;;;;;;27.73;21.41;98993.94;4998592;28;20049;-79
2022/10/27 01:39:58;;;;;;;1.85;1.65;;;;;;;27.90;21.40;98994.78;5003704;28;20026;-79
2022/10/27 01:43:01;;;;;;;2.92;1.80;;;;;;;27.81;21.39;99001.03;5000494;28;20037;-79
2022/10/27 01:45:31;;;;;;;2.05;1.83;;;;;;;27.59;21.75;98999.91;5003361;28;20054;-79
2022/10/27 01:47:59;;;;;;;3.30;1.48;;;;;;;27.48;21.53;98990.88;5002949;28;20043;-79
2022/10/27 01:50:35;;;;;;;2.15;1.65;;;;;;;26.94;22.32;99004.44;5001398;28;20068;-79
2022/10/27 01:53:01;;;;;;;3.15;2.03;;;;;;;26.97;23.17;99000.75;5001716;28;20110;-79
2022/10/27 01:55:39;;;;;;;2.13;1.63;;;;;;;27.04;22.55;99006.25;5005042;28;21022;-79
2022/10/27 01:58:23;;;;;;;3.13;1.55;;;;;;;27.23;22.20;98999.03;5012801;28;20054;-79
2022/10/27 02:01:08;;;;;;;3.15;1.88;;;;;;;27.43;21.73;98997.03;5010961;28;20049;-79
2022/10/27 02:03:41;;;;;;;2.15;1.73;;;;;;;27.50;21.73;98994.06;5009754;28;20082;-79
2022/10/27 02:06:20;;;;;;;1.65;1.45;;;;;;;27.60;21.55;98992.25;5009880;28;20399;-79
2022/10/27 02:09:19;;;;;;;3.10;1.67;;;;;;;27.31;21.58;98995.63;5016551;28;20388;-79
2022/10/27 02:11:51;;;;;;;2.03;1.55;;;;;;;27.50;20.99;98999.72;5015894;28;20030;-79
2022/10/27 02:14:19;;;;;;;2.97;1.60;;;;;;;27.64;20.66;98999.41;5014788;28;20034;-79
2022/10/27 02:16:53;;;;;;;3.60;1.83;;;;;;;27.41;21.14;99005.13;5016848;28;20030;-79
2022/10/27 02:19:32;;;;;;;1.52;1.38;;;;;;;27.10;22.06;99009.34;5012918;28;20117;-79
2022/10/27 02:22:00;;;;;;;2.05;1.55;;;;;;;27.21;21.86;99007.16;5012126;28;20046;-79
2022/10/27 02:24:27;;;;;;;2.13;1.40;;;;;;;27.16;22.07;99004.81;5014415;28;20038;-79
2022/10/27 02:27:08;;;;;;;2.10;1.90;;;;;;;27.29;21.76;99011.41;5013363;28;20034;-79
2022/10/27 02:29:36;;;;;;;1.98;1.30;;;;;;;27.11;22.25;99019.41;5006316;28;20092;-79
2022/10/27 02:32:06;;;;;;;1.85;1.30;;;;;;;27.16;21.68;99016.91;4997417;28;20066;-79
2022/10/27 02:34:33;;;;;;;3.70;1.80;;;;;;;27.22;21.49;99025.63;5008023;28;20087;-79
2022/10/27 02:37:00;;;;;;;1.38;1.27;;;;;;;27.25;21.64;99013.50;5004967;28;20112;-79
2022/10/27 02:39:26;;;;;;;1.70;1.40;;;;;;;27.37;21.42;99024.97;5009101;28;20038;-79
2022/10/27 02:41:52;;;;;;;1.85;1.52;;;;;;;27.46;21.04;99024.38;5011405;28;20034;-79
2022/10/27 02:44:18;;;;;;;2.05;1.63;;;;;;;27.47;20.89;99023.13;5009516;28;20407;-79
2022/10/27 02:46:44;;;;;;;2.20;1.50;;;;;;;27.23;21.51;99027.25;5004371;28;20041;-79
2022/10/27 02:49:10;;;;;;;2.75;1.83;;;;;;;27.35;21.21;99018.13;5006360;28;20073;-79
2022/10/27 02:51:36;;;;;;;2.17;1.65;;;;;;;27.45;21.00;99021.97;5015017;28;20034;-79
2022/10/27 02:54:02;;;;;;;1.63;1.40;;;;;;;27.48;20.75;99021.13;5014177;28;20057;-79
2022/10/27 02:56:29;;;;;;;1.77;1.50;;;;;;;27.39;21.00;99027.34;5007123;28;20042;-79
2022/10/27 02:58:55;;;;;;;2.72;1.60;;;;;;;27.22;21.21;99023.63;5013237;28;20058;-79
2022/10/27 03:01:21;;;;;;;1.40;1.30;;;;;;;26.97;21.60;99025.31;5006671;28;20117;-79
2022/10/27 03:03:47;;;;;;;1.92;1.42;;;;;;;26.91;22.05;99027.84;5004688;28;20073;-79
2022/10/27 03:06:13;;;;;;;3.13;1.48;;;;;;;26.84;21.71;99027.19;5015429;28;20118;-79
2022/10/27 03:08:39;;;;;;;2.67;1.50;;;;;;;26.73;21.82;99038.59;5011428;28;20040;-79
2022/10/27 03:11:05;;;;;;;2.80;1.55;;;;;;;26.85;22.26;99028.75;5014669;28;20036;-79
2022/10/27 03:13:31;;;;;;;4.40;1.20;;;;;;;26.94;21.80;99035.44;5007676;28;20450;-79
2022/10/27 03:15:57;;;;;;;4.65;1.52;;;;;;;26.99;21.42;99037.75;5013096;28;20109;-79
2022/10/27 03:18:23;;;;;;;2.55;1.50;;;;;;;26.68;22.24;99039.09;5012842;28;20038;-79
2022/10/27 03:20:50;;;;;;;2.28;1.52;;;;;;;26.82;22.09;99046.53;5014557;28;20037;-79
2022/10/27 03:23:16;;;;;;;1.45;1.35;;;;;;;27.00;21.89;99047.78;5015235;28;20045;-79
2022/10/27 03:25:45;;;;;;;2.15;1.45;;;;;;;26.81;21.61;99057.03;5014796;28;20117;-79
2022/10/27 03:28:11;;;;;;;1.80;1.23;;;;;;;26.91;21.63;99049.59;5015152;28;20030;-79
2022/10/27 03:30:38;;;;;;;2.38;1.30;;;;;;;27.09;21.69;99059.34;5011432;28;20049;-79
2022/10/27 03:33:04;;;;;;;2.33;1.33;;;;;;;27.12;21.18;99055.63;5014000;28;20038;-79
2022/10/27 03:35:31;;;;;;;1.60;1.10;;;;;;;26.96;21.52;99054.72;5014960;28;20099;-79
2022/10/27 03:38:01;;;;;;;3.22;1.50;;;;;;;26.83;21.68;99063.03;5013772;28;20053;-79
2022/10/27 03:40:28;;;;;;;1.40;1.00;;;;;;;27.11;21.52;99064.53;5011653;28;20435;-79
2022/10/27 03:42:57;;;;;;;0.85;0.85;;;;;;;26.97;21.16;99070.44;5014742;28;20049;-79
2022/10/27 03:45:25;;;;;;;1.10;0.90;;;;;;;26.82;21.63;99064.22;5008457;28;20038;-79
2022/10/27 03:48:02;;;;;;;0.90;0.70;;;;;;;26.98;21.39;99066.41;5025098;28;20038;-79
2022/10/27 03:50:29;;;;;;;1.55;1.30;;;;;;;27.24;21.20;99068.28;5008945;28;20052;-79
2022/10/27 03:52:55;;;;;;;3.05;1.35;;;;;;;27.02;21.22;99067.91;5011467;28;20050;-79
2022/10/27 03:55:22;;;;;;;1.55;1.25;;;;;;;26.68;21.44;99073.69;5011815;28;20041;-79
2022/10/27 03:57:49;;;;;;;1.40;1.10;;;;;;;26.27;22.31;99069.56;5010440;28;20022;-79
2022/10/27 04:00:16;;;;;;;1.30;1.20;;;;;;;26.09;22.86;99062.13;5012434;28;20113;-79
2022/10/27 04:02:42;;;;;;;1.38;1.23;;;;;;;26.35;22.33;99068.22;5004038;28;20101;-79
2022/10/27 04:05:08;;;;;;;2.33;1.38;;;;;;;26.38;22.61;99065.34;5010891;28;20028;-79
2022/10/27 04:07:34;;;;;;;1.55;1.45;;;;;;;26.42;22.06;99077.34;5008553;28;20117;-79
2022/10/27 04:10:00;;;;;;;2.28;1.35;;;;;;;26.50;21.94;99075.22;5010543;28;20034;-79
2022/10/27 04:12:27;;;;;;;1.30;1.20;;;;;;;26.30;22.77;99074.34;5012028;28;20052;-79
2022/10/27 04:14:53;;;;;;;1.67;1.25;;;;;;;25.90;23.12;99076.91;5002199;28;20061;-79
2022/10/27 04:17:19;;;;;;;1.10;1.00;;;;;;;26.35;22.32;99074.63;5008034;28;20076;-79
2022/10/27 04:19:45;;;;;;;2.13;1.65;;;;;;;26.59;22.53;99083.91;5011454;28;20038;-79
2022/10/27 04:22:11;;;;;;;1.55;1.15;;;;;;;26.74;22.52;99083.28;5011572;28;20095;-79
2022/10/27 04:24:39;;;;;;;1.45;1.25;;;;;;;26.91;22.09;99083.44;5010401;28;20045;-79
2022/10/27 04:27:06;;;;;;;1.90;1.25;;;;;;;27.04;21.52;99075.94;5012398;28;20072;-80
2022/10/27 04:29:32;;;;;;;1.98;1.27;;;;;;;27.23;21.45;99075.19;5005246;28;20442;-79
2022/10/27 04:31:58;;;;;;;2.20;1.30;;;;;;;27.31;21.56;99080.25;5005106;28;20033;-79
2022/10/27 04:34:24;;;;;;;1.70;1.17;;;;;;;27.40;21.04;99074.06;5010005;28;20042;-79
2022/10/27 04:36:50;;;;;;;1.42;1.05;;;;;;;27.42;21.25;99077.25;5004086;28;20407;-79
2022/10/27 04:39:17;;;;;;;2.90;1.35;;;;;;;27.17;21.37;99079.72;5004538;28;20535;-79
2022/10/27 04:41:43;;;;;;;1.98;1.42;;;;;;;27.00;21.64;99080.84;5009451;28;20407;-79
2022/10/27 04:44:09;;;;;;;1.73;1.40;;;;;;;26.77;22.15;99078.03;5004880;28;20037;-80
2022/10/27 04:46:35;;;;;;;2.00;1.35;;;;;;;26.75;22.27;99078.44;5005487;28;20022;-79
2022/10/27 04:49:01;;;;;;;1.67;1.00;;;;;;;26.68;21.81;99082.16;5009093;28;20034;-79
2022/10/27 04:51:27;;;;;;;2.17;1.45;;;;;;;26.26;22.95;99085.63;5004798;28;20396;-79
2022/10/27 04:53:53;;;;;;;1.85;1.67;;;;;;;26.37;23.13;99083.44;5012431;28;20029;-79
2022/10/27 04:56:19;;;;;;;1.77;1.13;;;;;;;26.16;23.43;99092.25;5012079;28;20113;-79
2022/10/27 04:58:46;;;;;;;3.47;1.30;;;;;;;26.23;23.19;99086.50;5013724;28;20606;-79
2022/10/27 05:01:13;;;;;;;4.22;1.70;;;;;;;25.99;23.91;99090.44;5012774;28;20145;-79
2022/10/27 05:03:39;;;;;;;1.83;1.55;;;;;;;25.94;24.08;99086.06;5012930;28;20069;-79
2022/10/27 05:06:06;;;;;;;1.42;1.33;;;;;;;25.91;24.26;99095.34;5008772;28;20042;-79
2022/10/27 05:08:32;;;;;;;2.13;1.73;;;;;;;26.02;23.70;99096.00;5013043;28;20414;-79
2022/10/27 05:10:58;;;;;;;1.98;1.58;;;;;;;26.35;23.80;99094.34;5012376;28;20042;-79
2022/10/27 05:13:24;;;;;;;2.67;1.45;;;;;;;26.61;23.65;99099.19;5005755;28;20030;-79
2022/10/27 05:15:50;;;;;;;2.00;1.80;;;;;;;26.55;23.49;99097.28;5013349;28;20084;-79
2022/10/27 05:18:17;;;;;;;2.45;1.67;;;;;;;26.54;23.08;99098.47;5011307;28;20383;-79
2022/10/27 05:20:43;;;;;;;3.17;1.67;;;;;;;26.92;22.88;99099.91;5005959;28;20431;-80
2022/10/27 05:23:10;;;;;;;2.85;1.40;;;;;;;27.19;23.01;99102.66;5013907;28;20199;-79
2022/10/27 05:25:36;;;;;;;2.38;1.40;;;;;;;27.44;22.71;99105.03;5013543;28;20443;-79
2022/10/27 05:28:08;;;;;;;3.53;1.38;;;;;;;27.65;22.46;99110.25;5013350;28;20037;-79
2022/10/27 05:30:34;;;;;;;2.38;1.30;;;;;;;27.73;22.73;99117.31;5005529;28;20030;-79
2022/10/27 05:33:01;;;;;;;1.40;1.30;;;;;;;27.38;22.92;99110.34;5013188;28;20104;-79
2022/10/27 05:35:27;;;;;;;2.33;1.25;;;;;;;27.28;23.01;99122.63;5011466;28;20137;-79
2022/10/27 05:37:53;;;;;;;4.50;1.33;;;;;;;27.45;22.87;99120.69;5012421;28;20028;-80
2022/10/27 05:40:19;;;;;;;1.52;1.42;;;;;;;27.77;22.60;99124.47;5012777;28;20507;-79
2022/10/27 05:42:53;;;;;;;1.35;1.20;;;;;;;27.26;23.05;99120.22;5012782;28;20384;-79
2022/10/27 05:45:22;;;;;;;2.25;1.50;;;;;;;27.32;22.97;99115.69;5012473;28;20029;-79
2022/10/27 05:47:55;;;;;;;1.80;1.20;;;;;;;27.74;22.88;99130.22;5006363;28;20040;-79
2022/10/27 05:50:21;;;;;;;2.42;1.15;;;;;;;28.04;22.91;99121.53;5007742;28;20452;-79
2022/10/27 05:52:47;;;;;;;1.90;1.45;;;;;;;28.20;22.70;99126.44;5013191;28;20030;-79
2022/10/27 05:55:13;;;;;;;2.25;1.33;;;;;;;28.29;22.49;99127.44;5013160;28;20487;-79
2022/10/27 05:57:39;;;;;;;2.35;1.30;;;;;;;28.44;22.82;99131.53;5025536;28;20116;-79
2022/10/27 06:00:06;;;;;;;1.77;1.23;;;;;;;28.80;22.64;99133.56;5015160;28;20103;-79
2022/10/27 06:02:32;;;;;;;2.13;1.42;;;;;;;29.06;22.40;99138.91;5014803;28;20029;-79
2022/10/27 06:04:58;;;;;;;3.08;1.35;;;;;;;29.15;22.34;99139.09;5018160;28;20396;-80
2022/10/27 06:07:25;;;;;;;1.85;1.25;;;;;;;29.04;22.37;99149.88;5012812;28;20041;-79
2022/10/27 06:09:51;;;;;;;1.40;1.30;;;;;;;28.71;22.83;99148.28;5013057;28;20026;-79
2022/10/27 06:12:18;;;;;;;2.35;1.15;;;;;;;28.85;22.66;99153.59;5011693;28;20395;-79
2022/10/27 06:14:44;;;;;;;1.38;1.25;;;;;;;29.02;22.39;99151.56;5011529;28;20431;-79
2022/10/27 06:17:10;;;;;;;1.13;1.02;;;;;;;29.05;22.58;99159.97;5012617;28;20041;-79
2022/10/27 06:19:36;;;;;;;3.38;1.23;;;;;;;28.93;22.60;99157.03;5011486;28;20034;-80
2022/10/27 06:22:02;;;;;;;2.20;1.35;;;;;;;28.78;22.72;99164.31;5012399;28;20049;-79
2022/10/27 06:24:28;;;;;;;1.42;1.20;;;;;;;28.59;22.81;99168.78;5012936;28;20493;-80
2022/10/27 06:26:55;;;;;;;1.23;0.90;;;;;;;28.36;23.28;99175.28;5013121;28;20387;-80
2022/10/27 06:29:21;;;;;;;1.85;1.00;;;;;;;28.57;23.23;99165.53;5011318;28;20034;-80
2022/10/27 06:31:47;;;;;;;1.67;1.50;;;;;;;28.56;23.18;99176.06;5012584;28;20137;-80
2022/10/27 06:34:13;;;;;;;2.25;1.25;;;;;;;28.59;23.37;99177.25;5011804;28;20108;-80
2022/10/27 06:36:39;;;;;;;2.30;1.45;;;;;;;28.64;23.71;99177.50;5010822;28;20034;-80
2022/10/27 06:39:05;;;;;;;1.27;1.02;;;;;;;28.87;23.70;99176.56;5012556;28;20033;-80
2022/10/27 06:41:31;;;;;;;2.90;0.98;;;;;;;29.29;23.20;99177.59;5012842;28;20087;-79
2022/10/27 06:43:57;;;;;;;5.57;1.20;;;;;;;29.37;23.10;99185.44;5011425;28;20034;-80
2022/10/27 06:46:23;;;;;;;2.58;1.42;;;;;;;29.40;23.05;99181.72;5012606;28;20033;-79
2022/10/27 06:48:50;;;;;;;4.13;1.33;;;;;;;29.14;23.20;99185.59;5012438;28;20033;-80
2022/10/27 06:51:16;;;;;;;2.30;1.50;;;;;;;29.05;24.06;99196.75;5012431;28;20030;-80
2022/10/27 06:53:42;;;;;;;2.03;1.60;;;;;;;29.06;23.48;99192.66;5011350;28;20149;-80
2022/10/27 06:56:08;;;;;;;2.60;1.95;;;;;;;29.01;23.41;99207.31;5011995;28;20022;-80
2022/10/27 06:58:38;;;;;;;3.83;1.50;;;;;;;29.06;23.71;99206.00;5014556;28;20556;-79
2022/10/27 07:01:04;;;;;;;1.45;1.35;;;;;;;29.29;23.34;99198.16;5016330;28;20033;-79
2022/10/27 07:03:33;;;;;;;1.40;1.10;;;;;;;29.47;23.23;99205.41;5014442;28;20038;-80
2022/10/27 07:05:59;;;;;;;1.88;1.20;;;;;;;29.70;22.86;99206.00;5015868;28;20034;-80
2022/10/27 07:08:26;;;;;;;2.13;1.48;;;;;;;29.70;22.73;99199.53;5015999;28;20494;-80
2022/10/27 07:10:53;;;;;;;1.95;1.75;;;;;;;29.77;22.47;99208.66;5015013;28;20026;-80
2022/10/27 07:13:20;;;;;;;1.45;1.08;;;;;;;29.69;22.54;99207.22;5013998;28;20048;-79
2022/10/27 07:15:46;;;;;;;1.35;1.00;;;;;;;29.52;22.88;99208.50;5013754;28;20125;-79
2022/10/27 07:18:12;;;;;;;2.78;1.58;;;;;;;29.48;23.01;99215.50;5015514;28;20073;-79
2022/10/27 07:20:39;;;;;;;1.55;1.42;;;;;;;29.47;22.89;99213.91;5015246;28;20479;-80
2022/10/27 07:23:08;;;;;;;1.52;1.30;;;;;;;29.41;23.27;99225.75;5015594;28;20022;-79
2022/10/27 07:25:35;;;;;;;1.77;1.50;;;;;;;29.70;22.87;99225.00;5015534;28;20073;-79
2022/10/27 07:28:03;;;;;;;1.40;1.30;;;;;;;29.85;22.76;99231.91;5010953;28;20137;-80
2022/10/27 07:30:32;;;;;;;1.30;1.20;;;;;;;29.99;22.78;99226.63;5014752;28;20038;-79
2022/10/27 07:32:59;;;;;;;1.33;1.10;;;;;;;30.25;22.25;99236.00;5015335;28;20025;-80
2022/10/27 07:35:26;;;;;;;2.65;1.50;;;;;;;30.43;22.28;99229.88;5014499;28;20540;-79
2022/10/27 07:37:52;;;;;;;2.00;1.85;;;;;;;30.52;22.48;99235.66;5015338;28;20144;-80
2022/10/27 07:40:20;;;;;;;2.65;1.75;;;;;;;30.49;22.49;99239.41;5015229;28;20034;-80
2022/10/27 07:42:49;;;;;;;1.63;1.45;;;;;;;30.45;22.73;99239.50;5015097;28;20038;-79
2022/10/27 07:45:18;;;;;;;2.60;2.13;;;;;;;29.92;23.78;99241.00;5006938;28;20034;-80
2022/10/27 07:47:49;;;;;;;2.92;2.63;;;;;;;29.87;23.96;99244.34;4995457;28;20034;-80
2022/10/27 07:50:17;;;;;;;2.33;2.10;;;;;;;30.12;23.77;99248.56;4995221;28;20049;-80
2022/10/27 07:52:45;;;;;;;3.40;2.88;;;;;;;30.19;23.51;99246.31;4995416;28;20131;-79
2022/10/27 07:55:13;;;;;;;5.40;2.80;;;;;;;30.43;23.22;99261.84;4993993;28;20035;-80
2022/10/27 07:57:40;;;;;;;2.60;2.40;;;;;;;30.79;22.98;99253.06;4995000;28;20026;-79
2022/10/27 08:00:12;;;;;;;2.67;2.47;;;;;;;31.11;22.97;99254.94;5013361;28;20404;-79
2022/10/27 08:02:38;;;;;;;2.47;1.92;;;;;;;31.37;22.35;99245.91;5013395;28;20022;-79
2022/10/27 08:05:05;;;;;;;2.45;1.98;;;;;;;31.44;22.47;99244.91;4999576;28;20038;-79
2022/10/27 08:07:32;;;;;;;2.33;1.70;;;;;;;31.58;22.80;99250.09;5014023;28;20040;-79
2022/10/27 08:09:58;;;;;;;2.03;1.48;;;;;;;31.75;22.38;99247.91;5014871;28;20037;-79
2022/10/27 08:12:24;;;;;;;2.30;1.55;;;;;;;31.94;22.49;99253.31;5014178;28;20054;-79
2022/10/27 08:14:50;;;;;;;1.50;1.30;;;;;;;32.03;22.34;99258.31;5014956;28;20455;-79
2022/10/27 08:17:16;;;;;;;1.52;1.42;;;;;;;32.08;22.80;99267.03;5014465;28;20038;-79
2022/10/27 08:19:43;;;;;;;1.55;1.42;;;;;;;31.27;24.27;99260.47;5013392;28;20518;-79
2022/10/27 08:22:09;;;;;;;1.63;1.40;;;;;;;31.86;22.80;99257.66;5012804;28;20048;-79
2022/10/27 08:24:35;;;;;;;1.40;1.02;;;;;;;31.66;23.29;99267.72;5013388;28;20065;-79
2022/10/27 08:27:01;;;;;;;1.80;1.00;;;;;;;31.82;22.45;99262.66;5014075;28;20057;-80
2022/10/27 08:29:27;;;;;;;1.95;1.15;;;;;;;31.78;22.36;99269.72;5014840;28;20038;-80
2022/10/27 08:31:55;;;;;;;1.23;1.13;;;;;;;31.93;22.37;99265.91;5014313;28;20046;-79
2022/10/27 08:34:21;;;;;;;2.05;0.82;;;;;;;32.01;22.47;99269.34;5014374;28;20084;-79
2022/10/27 08:36:47;;;;;;;1.00;0.80;;;;;;;32.17;22.59;99274.84;5005344;28;20073;-80
2022/10/27 08:39:13;;;;;;;1.85;0.80;;;;;;;32.30;22.07;99278.41;5014071;28;20113;-80
2022/10/27 08:42:22;;;;;;;1.48;1.38;;;;;;;32.24;22.48;99268.09;5014152;28;20124;-79
2022/10/27 08:44:59;;;;;;;0.93;0.88;;;;;;;32.39;22.13;99277.69;5013016;28;20037;-80
2022/10/27 08:47:26;;;;;;;1.42;0.98;;;;;;;32.41;22.29;99278.03;5014297;28;20116;-80
2022/10/27 08:50:03;;;;;;;1.40;1.10;;;;;;;32.29;22.61;99281.72;5011883;28;20030;-80
2022/10/27 08:52:37;;;;;;;1.25;0.85;;;;;;;32.15;22.89;99273.72;5012105;28;20034;-80
2022/10/27 08:55:14;;;;;;;1.52;0.85;;;;;;;32.46;23.05;99272.56;5008784;28;20104;-80
2022/10/27 08:57:57;;;;;;;1.67;0.90;;;;;;;32.48;22.81;99263.53;5013555;28;20034;-80
2022/10/27 09:00:23;;;;;;;1.88;1.35;;;;;;;32.64;22.69;99267.00;4994581;28;20042;-80
2022/10/27 09:02:56;;;;;;;1.52;0.75;;;;;;;32.81;22.78;99267.56;4994298;28;20105;-80
2022/10/27 09:05:52;;;;;;;0.95;0.90;;;;;;;32.83;23.33;99261.41;5011023;28;20026;-80
2022/10/27 09:08:26;;;;;;;1.15;0.80;;;;;;;32.54;23.27;99264.56;5013812;28;20034;-80
2022/10/27 09:11:05;;;;;;;2.42;0.80;;;;;;;32.73;23.12;99261.38;5005730;28;20030;-80
2022/10/27 09:13:53;;;;;;;1.15;0.90;;;;;;;32.59;23.75;99263.97;5013572;28;20034;-80
2022/10/27 09:16:50;;;;;;;0.95;0.80;;;;;;;32.93;23.57;99275.19;5012572;28;20487;-80
2022/10/27 09:19:26;;;;;;;0.73;0.70;;;;;;;33.12;23.02;99273.25;4989883;28;20049;-80
2022/10/27 09:21:53;;;;;;;2.35;0.95;;;;;;;32.95;22.75;99283.28;5013217;28;20053;-80
2022/10/27 09:24:23;;;;;;;1.05;0.93;;;;;;;32.01;23.50;99275.03;5012497;28;20040;-80
2022/10/27 09:26:51;;;;;;;1.30;0.90;;;;;;;31.69;24.49;99275.31;5012306;28;20117;-80
2022/10/27 09:29:22;;;;;;;1.17;1.08;;;;;;;32.17;23.99;99282.56;5013021;28;20483;-80
2022/10/27 09:31:59;;;;;;;2.67;0.90;;;;;;;32.18;23.73;99282.13;5013250;28;20041;-80
2022/10/27 09:34:25;;;;;;;1.45;0.90;;;;;;;31.86;24.25;99288.09;5013429;28;20029;-80
2022/10/27 09:36:52;;;;;;;1.73;1.20;;;;;;;31.42;25.34;99282.28;5013277;28;20113;-80
2022/10/27 09:39:19;;;;;;;1.42;1.13;;;;;;;29.39;28.62;99287.66;5011918;28;20065;-81
2022/10/27 09:41:46;;;;;;;1.52;1.42;;;;;;;28.88;30.59;99294.09;5012022;28;20026;-81
2022/10/27 09:44:23;;;;;;;1.88;1.30;;;;;;;28.57;29.79;99292.72;5005943;28;20077;-80
2022/10/27 09:46:52;;;;;;;4.25;1.92;;;;;;;28.75;30.27;99287.53;5012989;28;20113;-80
2022/10/27 09:49:21;;;;;;;2.28;1.70;;;;;;;29.23;29.02;99279.16;5013266;28;20499;-80
2022/10/27 09:51:52;;;;;;;2.00;1.80;;;;;;;29.63;28.78;99282.59;5013111;28;20395;-80
2022/10/27 09:54:38;;;;;;;2.08;1.80;;;;;;;29.95;27.88;99281.78;5011980;28;20042;-80
2022/10/27 09:57:06;;;;;;;1.58;1.42;;;;;;;29.94;27.89;99278.16;5012174;28;20041;-81
2022/10/27 09:59:35;;;;;;;2.25;1.73;;;;;;;29.35;28.11;99286.94;5013110;28;20439;-80
2022/10/27 10:02:04;;;;;;;3.65;2.40;;;;;;;29.61;28.08;99284.28;5012151;28;20117;-80
2022/10/27 10:04:41;;;;;;;3.70;1.80;;;;;;;30.22;26.74;99282.25;5013265;28;20029;-80
2022/10/27 10:07:26;;;;;;;2.72;1.98;;;;;;;30.26;27.32;99288.63;5012925;28;20077;-80
2022/10/27 10:10:16;;;;;;;3.40;1.98;;;;;;;29.39;31.15;99295.34;5011859;28;20498;-81
2022/10/27 10:12:42;;;;;;;2.70;2.15;;;;;;;29.57;27.86;99287.19;5011795;28;20494;-81
2022/10/27 10:15:11;;;;;;;2.35;2.15;;;;;;;29.77;28.01;99287.13;5013137;28;20041;-81
2022/10/27 10:17:41;;;;;;;2.58;2.38;;;;;;;29.97;28.58;99288.59;5008961;28;20038;-81
2022/10/27 10:20:25;;;;;;;2.83;2.22;;;;;;;29.52;29.33;99292.59;5009011;28;20029;-80
2022/10/27 10:22:51;;;;;;;2.17;1.90;;;;;;;30.35;27.30;99288.00;5012536;28;20049;-81
2022/10/27 10:25:26;;;;;;;3.20;1.73;;;;;;;31.35;25.77;99276.81;5012747;28;20044;-80
2022/10/27 10:28:22;;;;;;;2.63;1.95;;;;;;;30.43;25.14;99293.03;5013424;28;20045;-81
2022/10/27 10:30:51;;;;;;;1.70;1.60;;;;;;;30.29;27.28;99286.94;5016504;28;20061;-80
2022/10/27 10:33:21;;;;;;;2.30;1.90;;;;;;;30.03;27.26;99281.16;5016571;28;20491;-81
2022/10/27 10:35:49;;;;;;;1.48;1.38;;;;;;;30.19;25.69;99280.31;5008396;28;20040;-80
2022/10/27 10:38:38;;;;;;;2.65;1.60;;;;;;;31.00;25.57;99282.81;5016510;28;20109;-80
2022/10/27 10:41:06;;;;;;;2.38;1.95;;;;;;;30.95;26.13;99281.34;5015631;28;20030;-81
2022/10/27 10:43:33;;;;;;;2.22;1.67;;;;;;;30.90;25.42;99272.63;5016557;28;20033;-81
2022/10/27 10:45:59;;;;;;;1.88;1.63;;;;;;;31.30;26.65;99270.91;5016377;28;20504;-81
2022/10/27 10:48:31;;;;;;;1.80;1.58;;;;;;;32.17;25.32;99266.31;5016156;28;20105;-81
2022/10/27 10:50:58;;;;;;;1.80;1.67;;;;;;;32.73;23.57;99261.38;5016078;28;20080;-81
2022/10/27 10:53:26;;;;;;;1.65;1.45;;;;;;;32.64;25.26;99266.22;5008496;28;20443;-81
2022/10/27 10:55:55;;;;;;;3.47;1.42;;;;;;;33.34;23.40;99262.59;5015204;28;20034;-81
2022/10/27 10:58:25;;;;;;;1.50;1.40;;;;;;;33.02;26.13;99263.94;5015546;28;20543;-81
2022/10/27 11:00:54;;;;;;;2.90;1.50;;;;;;;32.33;23.42;99260.44;5015946;28;20054;-81
2022/10/27 11:03:23;;;;;;;2.95;1.60;;;;;;;32.04;25.60;99257.06;5016153;28;20038;-81
2022/10/27 11:06:19;;;;;;;2.40;1.50;;;;;;;32.93;24.10;99257.38;5015227;28;20022;-81
2022/10/27 11:08:57;;;;;;;1.88;1.48;;;;;;;33.15;23.92;99256.06;5015290;28;20033;-81
2022/10/27 11:11:30;;;;;;;1.58;1.20;;;;;;;33.43;23.66;99248.41;5014017;28;20072;-81
2022/10/27 11:14:17;;;;;;;2.03;1.48;;;;;;;33.69;22.92;99248.97;5015791;28;20028;-81
2022/10/27 11:16:56;;;;;;;1.85;1.20;;;;;;;33.45;23.73;99251.56;5016025;28;20430;-80
2022/10/27 11:19:23;;;;;;;1.95;1.23;;;;;;;34.03;23.17;99254.38;5014504;28;20096;-81
2022/10/27 11:22:00;;;;;;;1.90;1.30;;;;;;;32.72;26.24;99262.59;5015657;28;20407;-81
2022/10/27 11:24:40;;;;;;;2.20;1.40;;;;;;;32.56;26.25;99264.88;5015582;28;20033;-81
2022/10/27 11:27:38;;;;;;;1.30;1.20;;;;;;;31.32;26.49;99255.00;5003533;28;20042;-81
2022/10/27 11:30:17;;;;;;;3.53;1.88;;;;;;;30.91;29.56;99262.84;5015362;28;20495;-81
2022/10/27 11:32:50;;;;;;;5.47;1.92;;;;;;;30.91;27.89;99265.69;5015227;28;20057;-81
2022/10/27 11:35:19;;;;;;;2.53;1.77;;;;;;;31.67;24.89;99258.72;5015235;28;20033;-81
2022/10/27 11:38:21;;;;;;;1.48;1.38;;;;;;;31.76;26.27;99260.88;5015704;28;20438;-81
2022/10/27 11:41:01;;;;;;;2.35;1.60;;;;;;;32.96;23.88;99254.38;5013788;28;20077;-81
2022/10/27 11:43:35;;;;;;;2.50;1.90;;;;;;;33.03;24.91;99251.25;5004185;28;20039;-81
2022/10/27 11:46:01;;;;;;;3.28;2.28;;;;;;;32.40;23.54;99259.38;5015168;28;20026;-81
2022/10/27 11:48:53;;;;;;;1.88;1.42;;;;;;;32.53;24.38;99252.41;5015091;28;20037;-81